Olympic National Park, WA

10:59 AM PST am 02. März 2015 (GMT -0800)
Lake Dawn | Change Station
CLOSE
Current Station
Persönliche Wetterstationen
Location: Port Angeles, WA
Höhe: 1864 ft
Wetterstationen in der Umgebung

Höhe 1864 ft 48.04 °N, 123.43 °W | Updated 14 minutes ago

Heiter
Heiter
45.1 °F
gefühlte 45 °F
N
1.6
Wind Wechselnd Wind aus Südost
Gusts 5.4 mph

Heute
Max. -- | schwach -- °F
--% Regenrisiko
Gestern
Max. -- | schwach -- °F
Precip. -- inch
6:53 AM 5:59 PM
Zweites Viertel, 92% visible
Druck 30.09 inch
Sichtweite 10.0 Meilen
Wolken Heiter
Windchill 45 °F
Taupunkt 43 °F
Feuchtigkeit 92%
Regen 0.22 inch
Schneehöhe Nicht verfügbar..
UV 3 von 12
Pollen 8.00 von 12
Luftqualität Nicht verfügbar..
Flu Activity Nicht verfügbar..
METAR KCLM 021853Z AUTO 05004KT 10SM CLR 09/01 A3008 RMK AO2 SLP189 T00940011

More Conditions Fewer Conditions

Druck 30.09 inch
Sichtweite 10.0 Meilen
Wolken Heiter
Windchill 45 °F
Taupunkt 43 °F
Feuchtigkeit 92%
Regen 0.22 inch
Schneehöhe Nicht verfügbar..
UV 3 von 12
Pollen 8.00 von 12
Luftqualität Nicht verfügbar..
Flu Activity Nicht verfügbar..
METAR KCLM 021853Z AUTO 05004KT 10SM CLR 09/01 A3008 RMK AO2 SLP189 T00940011

More Conditions Fewer Conditions

10-Day Weather Forecast

Almanac

Astronomie

Mar. 02, 2015 Aufgang Untergang
Genaue Zeit
Bürgerliche Dämmerung
Nautische Dämmerung
Astronomische Dämmerung
Mond
Länge des sichtbaren Lichts
Tageslänge
Tomorrow will be .
, % of the Moon is Illuminated

Heutige Rekorde

State Highs State Lows

Community

WunderPhotos

Upload Photos

1,801,906 Fotos hochgeladen!

WunderBlogs® & News

Nearby

Luftqualität

  Luftqualität LQ Index Schadstoff
Not available.

Schneehöhe

Station Depth Höhe

Erdbebenaktivität

Stadt Distance Mag. Time & Date
Minimum magnitude displayed is 2.5.

küstennahe Wassertemperaturen

Ort Temperatur

Wetterstationen in der Umgebung